Terminal Aerodrome Forecast
Issued by NWS

Home | Current Version | Previous Version | Text Only | Print | Product List | Glossary Off
Versions: 1 2 3 4 5 6 7 8 9 10 11 12 13 14 15 16 17 18 19 20

000
FTUS43 KMPX 231120
TAFRWF
TAF
KRWF 231120Z 2312/2412 06008KT P6SM SCT004 OVC006
     FM231600 10010KT P6SM VCSH OVC008
     FM231900 11012KT P6SM OVC012
     FM240600 13010KT 2SM BR OVC004=

USA.gov is the U.S. government's official web portal to all federal, state and local government web resources and services.